sensor_id;sensor_type;location;lat;lon;timestamp;temperature;humidity
69225;DHT22;56333;51.306;17.056;2023-12-29T00:01:13;5.30;78.15
69225;DHT22;56333;51.306;17.056;2023-12-29T00:02:43;5.32;78.22
69225;DHT22;56333;51.306;17.056;2023-12-29T00:04:11;5.32;78.25
69225;DHT22;56333;51.306;17.056;2023-12-29T00:05:39;5.32;78.30
69225;DHT22;56333;51.306;17.056;2023-12-29T00:07:07;5.31;78.35
69225;DHT22;56333;51.306;17.056;2023-12-29T00:08:37;5.32;78.40
69225;DHT22;56333;51.306;17.056;2023-12-29T00:10:06;5.33;78.53
69225;DHT22;56333;51.306;17.056;2023-12-29T00:11:35;5.32;78.50
69225;DHT22;56333;51.306;17.056;2023-12-29T00:13:03;5.35;78.65
69225;DHT22;56333;51.306;17.056;2023-12-29T00:14:31;5.38;78.60
69225;DHT22;56333;51.306;17.056;2023-12-29T00:16:00;5.40;78.63
69225;DHT22;56333;51.306;17.056;2023-12-29T00:17:29;5.42;78.60
69225;DHT22;56333;51.306;17.056;2023-12-29T00:19:01;5.45;78.45
69225;DHT22;56333;51.306;17.056;2023-12-29T00:20:29;5.46;78.35
69225;DHT22;56333;51.306;17.056;2023-12-29T00:21:57;5.45;78.15
69225;DHT22;56333;51.306;17.056;2023-12-29T00:23:27;5.45;78.10
69225;DHT22;56333;51.306;17.056;2023-12-29T00:24:55;5.42;78.13
69225;DHT22;56333;51.306;17.056;2023-12-29T00:26:25;5.42;78.15
69225;DHT22;56333;51.306;17.056;2023-12-29T00:27:54;5.42;78.10
69225;DHT22;56333;51.306;17.056;2023-12-29T00:29:21;5.41;78.22
69225;DHT22;56333;51.306;17.056;2023-12-29T00:30:51;5.37;78.38
69225;DHT22;56333;51.306;17.056;2023-12-29T00:32:20;5.36;78.47
69225;DHT22;56333;51.306;17.056;2023-12-29T00:33:48;5.34;78.57
69225;DHT22;56333;51.306;17.056;2023-12-29T00:35:17;5.31;78.60
69225;DHT22;56333;51.306;17.056;2023-12-29T00:36:45;5.32;78.72
69225;DHT22;56333;51.306;17.056;2023-12-29T00:38:14;5.30;78.80
69225;DHT22;56333;51.306;17.056;2023-12-29T00:39:42;5.31;78.80
69225;DHT22;56333;51.306;17.056;2023-12-29T00:41:12;5.30;78.80
69225;DHT22;56333;51.306;17.056;2023-12-29T00:42:41;5.30;78.90
69225;DHT22;56333;51.306;17.056;2023-12-29T00:44:09;5.32;78.97
69225;DHT22;56333;51.306;17.056;2023-12-29T00:45:37;5.33;79.03
69225;DHT22;56333;51.306;17.056;2023-12-29T00:47:05;5.36;78.95
69225;DHT22;56333;51.306;17.056;2023-12-29T00:48:33;5.37;79.00
69225;DHT22;56333;51.306;17.056;2023-12-29T00:50:01;5.39;78.97
69225;DHT22;56333;51.306;17.056;2023-12-29T00:51:30;5.39;79.05
69225;DHT22;56333;51.306;17.056;2023-12-29T00:52:58;5.41;79.13
69225;DHT22;56333;51.306;17.056;2023-12-29T00:54:26;5.39;79.05
69225;DHT22;56333;51.306;17.056;2023-12-29T00:55:54;5.39;78.95
69225;DHT22;56333;51.306;17.056;2023-12-29T00:57:22;5.37;78.85
69225;DHT22;56333;51.306;17.056;2023-12-29T00:58:50;5.36;78.85
69225;DHT22;56333;51.306;17.056;2023-12-29T01:00:18;5.35;78.97
69225;DHT22;56333;51.306;17.056;2023-12-29T01:01:47;5.35;78.90
69225;DHT22;56333;51.306;17.056;2023-12-29T01:03:15;5.34;79.05
69225;DHT22;56333;51.306;17.056;2023-12-29T01:04:44;5.34;79.22
69225;DHT22;56333;51.306;17.056;2023-12-29T01:06:12;5.33;79.20
69225;DHT22;56333;51.306;17.056;2023-12-29T01:07:40;5.32;79.18
69225;DHT22;56333;51.306;17.056;2023-12-29T01:09:09;5.31;79.20
69225;DHT22;56333;51.306;17.056;2023-12-29T01:10:37;5.29;79.43
69225;DHT22;56333;51.306;17.056;2023-12-29T01:12:06;5.28;79.35
69225;DHT22;56333;51.306;17.056;2023-12-29T01:13:34;5.25;79.35
69225;DHT22;56333;51.306;17.056;2023-12-29T01:15:02;5.22;79.43
69225;DHT22;56333;51.306;17.056;2023-12-29T01:16:32;5.22;79.80
69225;DHT22;56333;51.306;17.056;2023-12-29T01:18:00;5.19;79.72
69225;DHT22;56333;51.306;17.056;2023-12-29T01:19:29;5.20;79.82
69225;DHT22;56333;51.306;17.056;2023-12-29T01:20:56;5.18;79.97
69225;DHT22;56333;51.306;17.056;2023-12-29T01:22:25;5.20;80.03
69225;DHT22;56333;51.306;17.056;2023-12-29T01:23:54;5.18;80.15
69225;DHT22;56333;51.306;17.056;2023-12-29T01:25:22;5.18;80.25
69225;DHT22;56333;51.306;17.056;2023-12-29T01:26:50;5.17;80.38
69225;DHT22;56333;51.306;17.056;2023-12-29T01:28:18;5.15;80.45
69225;DHT22;56333;51.306;17.056;2023-12-29T01:29:46;5.16;80.57
69225;DHT22;56333;51.306;17.056;2023-12-29T01:31:14;5.18;80.38
69225;DHT22;56333;51.306;17.056;2023-12-29T01:32:43;5.18;80.32
69225;DHT22;56333;51.306;17.056;2023-12-29T01:34:12;5.16;80.40
69225;DHT22;56333;51.306;17.056;2023-12-29T01:35:40;5.14;80.30
69225;DHT22;56333;51.306;17.056;2023-12-29T01:37:08;5.16;80.30
69225;DHT22;56333;51.306;17.056;2023-12-29T01:38:36;5.16;80.25
69225;DHT22;56333;51.306;17.056;2023-12-29T01:40:08;5.18;80.20
69225;DHT22;56333;51.306;17.056;2023-12-29T01:41:38;5.16;80.18
69225;DHT22;56333;51.306;17.056;2023-12-29T01:43:06;5.17;80.15
69225;DHT22;56333;51.306;17.056;2023-12-29T01:44:34;5.14;80.20
69225;DHT22;56333;51.306;17.056;2023-12-29T01:46:03;5.13;80.18
69225;DHT22;56333;51.306;17.056;2023-12-29T01:47:31;5.11;80.13
69225;DHT22;56333;51.306;17.056;2023-12-29T01:48:59;5.09;80.22
69225;DHT22;56333;51.306;17.056;2023-12-29T01:50:29;5.07;80.20
69225;DHT22;56333;51.306;17.056;2023-12-29T01:51:59;5.07;80.30
69225;DHT22;56333;51.306;17.056;2023-12-29T01:53:29;5.07;80.32
69225;DHT22;56333;51.306;17.056;2023-12-29T01:54:57;5.06;80.30
69225;DHT22;56333;51.306;17.056;2023-12-29T01:56:25;5.08;80.22
69225;DHT22;56333;51.306;17.056;2023-12-29T01:57:53;5.06;80.22
69225;DHT22;56333;51.306;17.056;2023-12-29T01:59:22;5.02;80.35
69225;DHT22;56333;51.306;17.056;2023-12-29T02:00:52;5.01;80.32
69225;DHT22;56333;51.306;17.056;2023-12-29T02:02:19;4.99;80.38
69225;DHT22;56333;51.306;17.056;2023-12-29T02:03:48;5.01;80.40
69225;DHT22;56333;51.306;17.056;2023-12-29T02:05:16;5.00;80.35
69225;DHT22;56333;51.306;17.056;2023-12-29T02:06:46;5.00;80.32
69225;DHT22;56333;51.306;17.056;2023-12-29T02:08:14;4.95;80.32
69225;DHT22;56333;51.306;17.056;2023-12-29T02:09:42;4.96;80.40
69225;DHT22;56333;51.306;17.056;2023-12-29T02:11:12;4.96;80.43
69225;DHT22;56333;51.306;17.056;2023-12-29T02:12:42;4.97;80.43
69225;DHT22;56333;51.306;17.056;2023-12-29T02:14:12;4.95;80.40
69225;DHT22;56333;51.306;17.056;2023-12-29T02:15:42;4.92;80.43
69225;DHT22;56333;51.306;17.056;2023-12-29T02:17:14;4.91;80.43
69225;DHT22;56333;51.306;17.056;2023-12-29T02:18:49;4.91;80.50
69225;DHT22;56333;51.306;17.056;2023-12-29T02:20:19;4.88;80.47
69225;DHT22;56333;51.306;17.056;2023-12-29T02:21:47;4.87;80.53
69225;DHT22;56333;51.306;17.056;2023-12-29T02:23:16;4.86;80.60
69225;DHT22;56333;51.306;17.056;2023-12-29T02:24:47;4.86;80.55
69225;DHT22;56333;51.306;17.056;2023-12-29T02:26:16;4.86;80.50
69225;DHT22;56333;51.306;17.056;2023-12-29T02:27:54;4.84;80.50
69225;DHT22;56333;51.306;17.056;2023-12-29T02:29:29;4.82;80.47
69225;DHT22;56333;51.306;17.056;2023-12-29T02:31:01;4.83;80.50
69225;DHT22;56333;51.306;17.056;2023-12-29T02:32:35;4.83;80.50
69225;DHT22;56333;51.306;17.056;2023-12-29T02:34:06;4.80;80.60
69225;DHT22;56333;51.306;17.056;2023-12-29T02:35:39;4.78;80.65
69225;DHT22;56333;51.306;17.056;2023-12-29T02:37:10;4.74;80.90
69225;DHT22;56333;51.306;17.056;2023-12-29T02:38:40;4.72;80.90
69225;DHT22;56333;51.306;17.056;2023-12-29T02:40:11;4.70;80.93
69225;DHT22;56333;51.306;17.056;2023-12-29T02:41:40;4.71;80.93
69225;DHT22;56333;51.306;17.056;2023-12-29T02:43:09;4.72;81.22
69225;DHT22;56333;51.306;17.056;2023-12-29T02:44:37;4.72;81.00
69225;DHT22;56333;51.306;17.056;2023-12-29T02:46:05;4.73;81.05
69225;DHT22;56333;51.306;17.056;2023-12-29T02:47:33;4.73;80.93
69225;DHT22;56333;51.306;17.056;2023-12-29T02:49:02;4.74;80.97
69225;DHT22;56333;51.306;17.056;2023-12-29T02:50:35;4.72;81.13
69225;DHT22;56333;51.306;17.056;2023-12-29T02:52:04;4.72;81.05
69225;DHT22;56333;51.306;17.056;2023-12-29T02:53:33;4.74;81.10
69225;DHT22;56333;51.306;17.056;2023-12-29T02:55:01;4.76;81.10
69225;DHT22;56333;51.306;17.056;2023-12-29T02:56:29;4.77;81.13
69225;DHT22;56333;51.306;17.056;2023-12-29T02:57:58;4.79;81.15
69225;DHT22;56333;51.306;17.056;2023-12-29T02:59:26;4.81;81.15
69225;DHT22;56333;51.306;17.056;2023-12-29T03:00:54;4.82;81.13
69225;DHT22;56333;51.306;17.056;2023-12-29T03:02:22;4.83;81.10
69225;DHT22;56333;51.306;17.056;2023-12-29T03:03:50;4.81;81.10
69225;DHT22;56333;51.306;17.056;2023-12-29T03:05:18;4.84;81.07
69225;DHT22;56333;51.306;17.056;2023-12-29T03:06:47;4.85;81.03
69225;DHT22;56333;51.306;17.056;2023-12-29T03:08:16;4.86;80.93
69225;DHT22;56333;51.306;17.056;2023-12-29T03:09:44;4.87;80.90
69225;DHT22;56333;51.306;17.056;2023-12-29T03:11:12;4.89;80.90
69225;DHT22;56333;51.306;17.056;2023-12-29T03:12:40;4.87;80.80
69225;DHT22;56333;51.306;17.056;2023-12-29T03:14:08;4.88;80.80
69225;DHT22;56333;51.306;17.056;2023-12-29T03:15:37;4.89;80.72
69225;DHT22;56333;51.306;17.056;2023-12-29T03:17:05;4.90;80.70
69225;DHT22;56333;51.306;17.056;2023-12-29T03:18:33;4.88;80.68
69225;DHT22;56333;51.306;17.056;2023-12-29T03:20:05;4.89;80.70
69225;DHT22;56333;51.306;17.056;2023-12-29T03:21:35;4.88;80.75
69225;DHT22;56333;51.306;17.056;2023-12-29T03:23:04;4.88;80.88
69225;DHT22;56333;51.306;17.056;2023-12-29T03:24:32;4.87;80.80
69225;DHT22;56333;51.306;17.056;2023-12-29T03:26:01;4.86;80.80
69225;DHT22;56333;51.306;17.056;2023-12-29T03:27:30;4.88;80.65
69225;DHT22;56333;51.306;17.056;2023-12-29T03:28:59;4.89;80.57
69225;DHT22;56333;51.306;17.056;2023-12-29T03:30:27;4.89;80.35
69225;DHT22;56333;51.306;17.056;2023-12-29T03:31:55;4.89;80.07
69225;DHT22;56333;51.306;17.056;2023-12-29T03:33:23;4.86;79.82
69225;DHT22;56333;51.306;17.056;2023-12-29T03:34:51;4.82;79.70
69225;DHT22;56333;51.306;17.056;2023-12-29T03:36:19;4.80;79.72
69225;DHT22;56333;51.306;17.056;2023-12-29T03:37:47;4.76;79.78
69225;DHT22;56333;51.306;17.056;2023-12-29T03:39:15;4.74;79.90
69225;DHT22;56333;51.306;17.056;2023-12-29T03:40:43;4.72;80.32
69225;DHT22;56333;51.306;17.056;2023-12-29T03:42:12;4.68;80.38
69225;DHT22;56333;51.306;17.056;2023-12-29T03:43:40;4.68;80.55
69225;DHT22;56333;51.306;17.056;2023-12-29T03:45:09;4.66;80.88
69225;DHT22;56333;51.306;17.056;2023-12-29T03:46:40;4.65;81.18
69225;DHT22;56333;51.306;17.056;2023-12-29T03:48:09;4.64;81.13
69225;DHT22;56333;51.306;17.056;2023-12-29T03:49:39;4.68;81.43
69225;DHT22;56333;51.306;17.056;2023-12-29T03:51:06;4.66;81.55
69225;DHT22;56333;51.306;17.056;2023-12-29T03:52:35;4.71;81.57
69225;DHT22;56333;51.306;17.056;2023-12-29T03:54:04;4.73;81.63
69225;DHT22;56333;51.306;17.056;2023-12-29T03:55:32;4.76;81.55
69225;DHT22;56333;51.306;17.056;2023-12-29T03:57:01;4.76;81.50
69225;DHT22;56333;51.306;17.056;2023-12-29T03:58:29;4.81;81.50
69225;DHT22;56333;51.306;17.056;2023-12-29T03:59:57;4.80;81.40
69225;DHT22;56333;51.306;17.056;2023-12-29T04:01:25;4.82;81.35
69225;DHT22;56333;51.306;17.056;2023-12-29T04:02:53;4.82;81.30
69225;DHT22;56333;51.306;17.056;2023-12-29T04:04:21;4.84;81.30
69225;DHT22;56333;51.306;17.056;2023-12-29T04:05:49;4.80;81.25
69225;DHT22;56333;51.306;17.056;2023-12-29T04:07:17;4.81;81.22
69225;DHT22;56333;51.306;17.056;2023-12-29T04:08:45;4.84;81.35
69225;DHT22;56333;51.306;17.056;2023-12-29T04:10:13;4.84;81.43
69225;DHT22;56333;51.306;17.056;2023-12-29T04:11:41;4.87;81.63
69225;DHT22;56333;51.306;17.056;2023-12-29T04:13:09;4.90;81.38
69225;DHT22;56333;51.306;17.056;2023-12-29T04:14:39;4.94;81.43
69225;DHT22;56333;51.306;17.056;2023-12-29T04:16:07;4.95;81.32
69225;DHT22;56333;51.306;17.056;2023-12-29T04:17:35;4.97;81.35
69225;DHT22;56333;51.306;17.056;2023-12-29T04:19:03;5.00;81.35
69225;DHT22;56333;51.306;17.056;2023-12-29T04:20:31;5.02;81.30
69225;DHT22;56333;51.306;17.056;2023-12-29T04:21:59;5.06;81.22
69225;DHT22;56333;51.306;17.056;2023-12-29T04:23:28;5.10;81.28
69225;DHT22;56333;51.306;17.056;2023-12-29T04:24:56;5.12;81.13
69225;DHT22;56333;51.306;17.056;2023-12-29T04:26:24;5.16;81.10
69225;DHT22;56333;51.306;17.056;2023-12-29T04:27:51;5.19;81.00
69225;DHT22;56333;51.306;17.056;2023-12-29T04:29:20;5.23;80.90
69225;DHT22;56333;51.306;17.056;2023-12-29T04:30:47;5.26;80.80
69225;DHT22;56333;51.306;17.056;2023-12-29T04:32:16;5.27;80.78
69225;DHT22;56333;51.306;17.056;2023-12-29T04:33:45;5.28;80.70
69225;DHT22;56333;51.306;17.056;2023-12-29T04:35:13;5.32;80.65
69225;DHT22;56333;51.306;17.056;2023-12-29T04:36:41;5.34;80.60
69225;DHT22;56333;51.306;17.056;2023-12-29T04:38:09;5.37;80.53
69225;DHT22;56333;51.306;17.056;2023-12-29T04:39:37;5.39;80.47
69225;DHT22;56333;51.306;17.056;2023-12-29T04:41:05;5.42;80.40
69225;DHT22;56333;51.306;17.056;2023-12-29T04:42:34;5.44;80.30
69225;DHT22;56333;51.306;17.056;2023-12-29T04:44:02;5.45;80.20
69225;DHT22;56333;51.306;17.056;2023-12-29T04:45:30;5.45;80.10
69225;DHT22;56333;51.306;17.056;2023-12-29T04:46:58;5.45;80.00
69225;DHT22;56333;51.306;17.056;2023-12-29T04:48:26;5.45;80.10
69225;DHT22;56333;51.306;17.056;2023-12-29T04:49:55;5.48;80.03
69225;DHT22;56333;51.306;17.056;2023-12-29T04:51:23;5.50;79.97
69225;DHT22;56333;51.306;17.056;2023-12-29T04:52:51;5.49;80.00
69225;DHT22;56333;51.306;17.056;2023-12-29T04:54:19;5.52;79.95
69225;DHT22;56333;51.306;17.056;2023-12-29T04:55:47;5.50;80.10
69225;DHT22;56333;51.306;17.056;2023-12-29T04:57:15;5.53;80.05
69225;DHT22;56333;51.306;17.056;2023-12-29T04:58:43;5.53;80.07
69225;DHT22;56333;51.306;17.056;2023-12-29T05:00:13;5.56;80.07
69225;DHT22;56333;51.306;17.056;2023-12-29T05:01:42;5.56;80.00
69225;DHT22;56333;51.306;17.056;2023-12-29T05:03:10;5.59;80.00
69225;DHT22;56333;51.306;17.056;2023-12-29T05:04:38;5.58;80.05
69225;DHT22;56333;51.306;17.056;2023-12-29T05:06:06;5.58;80.10
69225;DHT22;56333;51.306;17.056;2023-12-29T05:07:34;5.59;80.15
69225;DHT22;56333;51.306;17.056;2023-12-29T05:09:02;5.62;80.13
69225;DHT22;56333;51.306;17.056;2023-12-29T05:10:30;5.63;80.18
69225;DHT22;56333;51.306;17.056;2023-12-29T05:12:00;5.64;80.13
69225;DHT22;56333;51.306;17.056;2023-12-29T05:13:29;5.67;80.10
69225;DHT22;56333;51.306;17.056;2023-12-29T05:14:57;5.68;80.13
69225;DHT22;56333;51.306;17.056;2023-12-29T05:16:26;5.70;80.10
69225;DHT22;56333;51.306;17.056;2023-12-29T05:17:54;5.71;80.07
69225;DHT22;56333;51.306;17.056;2023-12-29T05:19:22;5.74;80.05
69225;DHT22;56333;51.306;17.056;2023-12-29T05:20:51;5.73;80.00
69225;DHT22;56333;51.306;17.056;2023-12-29T05:22:19;5.75;79.97
69225;DHT22;56333;51.306;17.056;2023-12-29T05:23:47;5.76;79.90
69225;DHT22;56333;51.306;17.056;2023-12-29T05:25:15;5.78;79.85
69225;DHT22;56333;51.306;17.056;2023-12-29T05:26:46;5.81;79.70
69225;DHT22;56333;51.306;17.056;2023-12-29T05:28:14;5.82;79.65
69225;DHT22;56333;51.306;17.056;2023-12-29T05:29:42;5.84;79.68
69225;DHT22;56333;51.306;17.056;2023-12-29T05:31:10;5.86;79.55
69225;DHT22;56333;51.306;17.056;2023-12-29T05:32:39;5.87;79.50
69225;DHT22;56333;51.306;17.056;2023-12-29T05:34:06;5.91;79.50
69225;DHT22;56333;51.306;17.056;2023-12-29T05:35:35;5.91;79.40
69225;DHT22;56333;51.306;17.056;2023-12-29T05:37:03;5.91;79.40
69225;DHT22;56333;51.306;17.056;2023-12-29T05:38:32;5.93;79.30
69225;DHT22;56333;51.306;17.056;2023-12-29T05:40:01;5.94;79.20
69225;DHT22;56333;51.306;17.056;2023-12-29T05:41:31;5.97;79.13
69225;DHT22;56333;51.306;17.056;2023-12-29T05:42:59;5.98;78.93
69225;DHT22;56333;51.306;17.056;2023-12-29T05:44:28;5.98;78.80
69225;DHT22;56333;51.306;17.056;2023-12-29T05:45:56;5.97;78.68
69225;DHT22;56333;51.306;17.056;2023-12-29T05:47:25;5.95;78.75
69225;DHT22;56333;51.306;17.056;2023-12-29T05:48:53;5.94;78.80
69225;DHT22;56333;51.306;17.056;2023-12-29T05:50:22;5.94;78.82
69225;DHT22;56333;51.306;17.056;2023-12-29T05:51:50;5.94;78.82
69225;DHT22;56333;51.306;17.056;2023-12-29T05:53:18;5.91;78.90
69225;DHT22;56333;51.306;17.056;2023-12-29T05:54:47;5.90;78.97
69225;DHT22;56333;51.306;17.056;2023-12-29T05:56:15;5.89;78.95
69225;DHT22;56333;51.306;17.056;2023-12-29T05:57:43;5.91;79.00
69225;DHT22;56333;51.306;17.056;2023-12-29T05:59:11;5.90;79.00
69225;DHT22;56333;51.306;17.056;2023-12-29T06:00:39;5.90;79.00
69225;DHT22;56333;51.306;17.056;2023-12-29T06:02:08;5.91;79.00
69225;DHT22;56333;51.306;17.056;2023-12-29T06:03:36;5.90;79.10
69225;DHT22;56333;51.306;17.056;2023-12-29T06:05:05;5.90;79.10
69225;DHT22;56333;51.306;17.056;2023-12-29T06:06:35;5.89;79.03
69225;DHT22;56333;51.306;17.056;2023-12-29T06:08:04;5.88;79.00
69225;DHT22;56333;51.306;17.056;2023-12-29T06:09:33;5.87;79.05
69225;DHT22;56333;51.306;17.056;2023-12-29T06:11:02;5.87;79.13
69225;DHT22;56333;51.306;17.056;2023-12-29T06:12:31;5.87;79.20
69225;DHT22;56333;51.306;17.056;2023-12-29T06:14:00;5.86;79.20
69225;DHT22;56333;51.306;17.056;2023-12-29T06:15:28;5.85;79.22
69225;DHT22;56333;51.306;17.056;2023-12-29T06:16:56;5.86;79.15
69225;DHT22;56333;51.306;17.056;2023-12-29T06:18:25;5.89;78.88
69225;DHT22;56333;51.306;17.056;2023-12-29T06:19:53;5.88;78.72
69225;DHT22;56333;51.306;17.056;2023-12-29T06:21:22;5.86;78.68
69225;DHT22;56333;51.306;17.056;2023-12-29T06:22:50;5.83;78.72
69225;DHT22;56333;51.306;17.056;2023-12-29T06:24:18;5.78;78.70
69225;DHT22;56333;51.306;17.056;2023-12-29T06:25:47;5.76;78.65
69225;DHT22;56333;51.306;17.056;2023-12-29T06:27:16;5.70;78.93
69225;DHT22;56333;51.306;17.056;2023-12-29T06:28:45;5.70;79.15
69225;DHT22;56333;51.306;17.056;2023-12-29T06:30:14;5.66;79.30
69225;DHT22;56333;51.306;17.056;2023-12-29T06:31:43;5.65;79.47
69225;DHT22;56333;51.306;17.056;2023-12-29T06:33:11;5.65;79.60
69225;DHT22;56333;51.306;17.056;2023-12-29T06:34:41;5.64;79.90
69225;DHT22;56333;51.306;17.056;2023-12-29T06:36:10;5.64;79.90
69225;DHT22;56333;51.306;17.056;2023-12-29T06:37:39;5.63;79.95
69225;DHT22;56333;51.306;17.056;2023-12-29T06:39:08;5.63;80.13
69225;DHT22;56333;51.306;17.056;2023-12-29T06:40:36;5.63;80.22
69225;DHT22;56333;51.306;17.056;2023-12-29T06:42:05;5.63;80.30
69225;DHT22;56333;51.306;17.056;2023-12-29T06:43:33;5.63;80.38
69225;DHT22;56333;51.306;17.056;2023-12-29T06:45:01;5.63;80.55
69225;DHT22;56333;51.306;17.056;2023-12-29T06:46:33;5.63;80.55
69225;DHT22;56333;51.306;17.056;2023-12-29T06:48:03;5.63;80.57
69225;DHT22;56333;51.306;17.056;2023-12-29T06:49:33;5.64;80.60
69225;DHT22;56333;51.306;17.056;2023-12-29T06:51:02;5.64;80.60
69225;DHT22;56333;51.306;17.056;2023-12-29T06:52:31;5.63;80.65
69225;DHT22;56333;51.306;17.056;2023-12-29T06:53:59;5.66;80.57
69225;DHT22;56333;51.306;17.056;2023-12-29T06:55:27;5.68;80.53
69225;DHT22;56333;51.306;17.056;2023-12-29T06:56:56;5.70;80.50
69225;DHT22;56333;51.306;17.056;2023-12-29T06:58:24;5.73;80.40
69225;DHT22;56333;51.306;17.056;2023-12-29T06:59:53;5.78;80.35
69225;DHT22;56333;51.306;17.056;2023-12-29T07:01:21;5.80;80.30
69225;DHT22;56333;51.306;17.056;2023-12-29T07:02:49;5.83;80.20
69225;DHT22;56333;51.306;17.056;2023-12-29T07:04:18;5.83;80.28
69225;DHT22;56333;51.306;17.056;2023-12-29T07:05:46;5.87;80.18
69225;DHT22;56333;51.306;17.056;2023-12-29T07:07:14;5.87;80.20
69225;DHT22;56333;51.306;17.056;2023-12-29T07:08:42;5.88;80.13
69225;DHT22;56333;51.306;17.056;2023-12-29T07:10:13;5.88;80.20
69225;DHT22;56333;51.306;17.056;2023-12-29T07:11:41;5.91;80.20
69225;DHT22;56333;51.306;17.056;2023-12-29T07:13:14;5.93;80.20
69225;DHT22;56333;51.306;17.056;2023-12-29T07:14:44;5.96;80.20
69225;DHT22;56333;51.306;17.056;2023-12-29T07:16:12;5.99;80.20
69225;DHT22;56333;51.306;17.056;2023-12-29T07:17:43;6.00;80.22
69225;DHT22;56333;51.306;17.056;2023-12-29T07:19:13;6.04;80.25
69225;DHT22;56333;51.306;17.056;2023-12-29T07:20:41;6.07;80.13
69225;DHT22;56333;51.306;17.056;2023-12-29T07:22:10;6.10;80.13
69225;DHT22;56333;51.306;17.056;2023-12-29T07:23:38;6.13;80.20
69225;DHT22;56333;51.306;17.056;2023-12-29T07:25:07;6.17;80.15
69225;DHT22;56333;51.306;17.056;2023-12-29T07:26:37;6.17;80.10
69225;DHT22;56333;51.306;17.056;2023-12-29T07:28:05;6.20;80.10
69225;DHT22;56333;51.306;17.056;2023-12-29T07:29:34;6.23;80.03
69225;DHT22;56333;51.306;17.056;2023-12-29T07:31:03;6.24;80.05
69225;DHT22;56333;51.306;17.056;2023-12-29T07:32:32;6.26;80.00
69225;DHT22;56333;51.306;17.056;2023-12-29T07:34:00;6.30;79.93
69225;DHT22;56333;51.306;17.056;2023-12-29T07:35:29;6.30;79.88
69225;DHT22;56333;51.306;17.056;2023-12-29T07:36:57;6.32;79.88
69225;DHT22;56333;51.306;17.056;2023-12-29T07:38:26;6.33;79.90
69225;DHT22;56333;51.306;17.056;2023-12-29T07:39:55;6.34;79.82
69225;DHT22;56333;51.306;17.056;2023-12-29T07:41:23;6.34;79.80
69225;DHT22;56333;51.306;17.056;2023-12-29T07:42:52;6.37;79.78
69225;DHT22;56333;51.306;17.056;2023-12-29T07:44:20;6.40;79.75
69225;DHT22;56333;51.306;17.056;2023-12-29T07:45:48;6.42;79.65
69225;DHT22;56333;51.306;17.056;2023-12-29T07:47:17;6.44;79.60
69225;DHT22;56333;51.306;17.056;2023-12-29T07:48:46;6.47;79.57
69225;DHT22;56333;51.306;17.056;2023-12-29T07:50:15;6.49;79.50
69225;DHT22;56333;51.306;17.056;2023-12-29T07:51:46;6.51;79.45
69225;DHT22;56333;51.306;17.056;2023-12-29T07:53:14;6.54;79.32
69225;DHT22;56333;51.306;17.056;2023-12-29T07:54:42;6.54;79.30
69225;DHT22;56333;51.306;17.056;2023-12-29T07:56:11;6.56;79.25
69225;DHT22;56333;51.306;17.056;2023-12-29T07:57:39;6.57;79.20
69225;DHT22;56333;51.306;17.056;2023-12-29T07:59:06;6.59;79.20
69225;DHT22;56333;51.306;17.056;2023-12-29T08:00:35;6.62;79.10
69225;DHT22;56333;51.306;17.056;2023-12-29T08:02:03;6.63;79.03
69225;DHT22;56333;51.306;17.056;2023-12-29T08:03:31;6.63;78.97
69225;DHT22;56333;51.306;17.056;2023-12-29T08:05:00;6.64;79.00
69225;DHT22;56333;51.306;17.056;2023-12-29T08:06:28;6.66;78.90
69225;DHT22;56333;51.306;17.056;2023-12-29T08:07:56;6.68;78.90
69225;DHT22;56333;51.306;17.056;2023-12-29T08:09:24;6.69;78.80
69225;DHT22;56333;51.306;17.056;2023-12-29T08:10:54;6.71;78.70
69225;DHT22;56333;51.306;17.056;2023-12-29T08:12:22;6.72;78.68
69225;DHT22;56333;51.306;17.056;2023-12-29T08:13:51;6.72;78.63
69225;DHT22;56333;51.306;17.056;2023-12-29T08:15:20;6.73;78.63
69225;DHT22;56333;51.306;17.056;2023-12-29T08:16:48;6.74;78.60
69225;DHT22;56333;51.306;17.056;2023-12-29T08:18:16;6.74;78.53
69225;DHT22;56333;51.306;17.056;2023-12-29T08:19:44;6.72;78.53
69225;DHT22;56333;51.306;17.056;2023-12-29T08:21:18;6.74;78.50
69225;DHT22;56333;51.306;17.056;2023-12-29T08:22:46;6.76;78.47
69225;DHT22;56333;51.306;17.056;2023-12-29T08:24:14;6.75;78.45
69225;DHT22;56333;51.306;17.056;2023-12-29T08:25:43;6.78;78.45
69225;DHT22;56333;51.306;17.056;2023-12-29T08:27:13;6.77;78.40
69225;DHT22;56333;51.306;17.056;2023-12-29T08:28:43;6.81;78.38
69225;DHT22;56333;51.306;17.056;2023-12-29T08:30:13;6.80;78.30
69225;DHT22;56333;51.306;17.056;2023-12-29T08:31:41;6.82;78.35
69225;DHT22;56333;51.306;17.056;2023-12-29T08:33:09;6.84;78.30
69225;DHT22;56333;51.306;17.056;2023-12-29T08:34:37;6.87;78.18
69225;DHT22;56333;51.306;17.056;2023-12-29T08:36:08;6.88;78.18
69225;DHT22;56333;51.306;17.056;2023-12-29T08:37:37;6.90;78.10
69225;DHT22;56333;51.306;17.056;2023-12-29T08:39:05;6.91;78.10
69225;DHT22;56333;51.306;17.056;2023-12-29T08:40:34;6.95;77.97
69225;DHT22;56333;51.306;17.056;2023-12-29T08:42:03;6.96;78.00
69225;DHT22;56333;51.306;17.056;2023-12-29T08:43:31;7.01;77.93
69225;DHT22;56333;51.306;17.056;2023-12-29T08:45:00;7.03;77.82
69225;DHT22;56333;51.306;17.056;2023-12-29T08:46:29;7.05;77.90
69225;DHT22;56333;51.306;17.056;2023-12-29T08:47:57;7.09;77.88
69225;DHT22;56333;51.306;17.056;2023-12-29T08:49:25;7.12;77.72
69225;DHT22;56333;51.306;17.056;2023-12-29T08:50:53;7.18;77.50
69225;DHT22;56333;51.306;17.056;2023-12-29T08:52:21;7.22;77.43
69225;DHT22;56333;51.306;17.056;2023-12-29T08:53:50;7.23;77.30
69225;DHT22;56333;51.306;17.056;2023-12-29T08:55:19;7.28;77.18
69225;DHT22;56333;51.306;17.056;2023-12-29T08:56:47;7.30;77.10
69225;DHT22;56333;51.306;17.056;2023-12-29T08:58:14;7.36;77.13
69225;DHT22;56333;51.306;17.056;2023-12-29T08:59:42;7.39;77.10
69225;DHT22;56333;51.306;17.056;2023-12-29T09:01:11;7.43;77.03
69225;DHT22;56333;51.306;17.056;2023-12-29T09:02:39;7.46;76.93
69225;DHT22;56333;51.306;17.056;2023-12-29T09:04:07;7.51;76.80
69225;DHT22;56333;51.306;17.056;2023-12-29T09:05:35;7.55;76.70
69225;DHT22;56333;51.306;17.056;2023-12-29T09:07:03;7.57;76.60
69225;DHT22;56333;51.306;17.056;2023-12-29T09:08:31;7.61;76.53
69225;DHT22;56333;51.306;17.056;2023-12-29T09:09:59;7.66;76.45
69225;DHT22;56333;51.306;17.056;2023-12-29T09:11:31;7.68;76.35
69225;DHT22;56333;51.306;17.056;2023-12-29T09:12:59;7.71;76.28
69225;DHT22;56333;51.306;17.056;2023-12-29T09:14:28;7.76;76.22
69225;DHT22;56333;51.306;17.056;2023-12-29T09:15:58;7.82;76.18
69225;DHT22;56333;51.306;17.056;2023-12-29T09:17:26;7.88;76.03
69225;DHT22;56333;51.306;17.056;2023-12-29T09:18:54;7.93;75.95
69225;DHT22;56333;51.306;17.056;2023-12-29T09:20:23;7.98;75.93